createdAt,value
2022-10-19T00:00:48.788Z,10.20
2022-10-19T00:03:19.418Z,9.88
2022-10-19T00:05:49.751Z,9.60
2022-10-19T00:08:18.427Z,9.32
2022-10-19T00:10:45.739Z,9.23
2022-10-19T00:13:13.066Z,8.57
2022-10-19T00:15:41.011Z,8.48
2022-10-19T00:18:08.903Z,8.55
2022-10-19T00:20:36.723Z,8.73
2022-10-19T00:23:04.645Z,7.88
2022-10-19T00:25:33.287Z,8.23
2022-10-19T00:28:01.503Z,8.02
2022-10-19T00:30:28.864Z,7.57
2022-10-19T00:32:56.201Z,7.78
2022-10-19T00:35:23.527Z,8.50
2022-10-19T00:37:51.752Z,7.38
2022-10-19T00:40:19.084Z,7.80
2022-10-19T00:42:47.715Z,7.43
2022-10-19T00:45:17.235Z,6.95
2022-10-19T00:47:45.754Z,7.28
2022-10-19T00:50:15.309Z,7.05
2022-10-19T00:52:42.894Z,6.70
2022-10-19T00:55:11.623Z,7.00
2022-10-19T00:57:38.996Z,6.88
2022-10-19T01:00:09.370Z,6.57
2022-10-19T01:02:37.179Z,6.18
2022-10-19T01:05:05.513Z,6.40
2022-10-19T01:07:33.511Z,6.30
2022-10-19T01:10:01.680Z,6.45
2022-10-19T01:12:45.656Z,6.20
2022-10-19T01:15:22.019Z,5.85
2022-10-19T01:17:56.354Z,5.85
2022-10-19T01:20:55.536Z,6.18
2022-10-19T01:24:11.202Z,6.07
2022-10-19T01:27:05.666Z,5.70
2022-10-19T01:32:08.821Z,6.13
2022-10-19T01:34:41.980Z,5.78
2022-10-19T01:37:17.301Z,4.00
2022-10-19T01:39:50.072Z,5.05
2022-10-19T01:42:20.671Z,5.22
2022-10-19T01:44:51.813Z,4.97
2022-10-19T01:47:23.955Z,5.32
2022-10-19T01:49:54.787Z,4.70
2022-10-19T01:52:23.348Z,4.43
2022-10-19T01:54:59.561Z,4.72
2022-10-19T01:57:30.669Z,5.00
2022-10-19T01:59:58.201Z,5.05
2022-10-19T02:02:28.289Z,5.28
2022-10-19T02:04:57.698Z,4.40
2022-10-19T02:07:25.743Z,4.85
2022-10-19T02:09:53.098Z,4.50
2022-10-19T02:12:21.396Z,4.88
2022-10-19T02:14:51.371Z,4.45
2022-10-19T02:17:20.694Z,4.38
2022-10-19T02:19:49.327Z,4.65
2022-10-19T02:22:16.651Z,4.78
2022-10-19T02:24:43.998Z,4.93
2022-10-19T02:27:11.614Z,4.75
2022-10-19T02:29:39.655Z,4.50
2022-10-19T02:32:07.504Z,4.68
2022-10-19T02:34:34.902Z,4.88
2022-10-19T02:37:03.720Z,4.43
2022-10-19T02:39:31.171Z,4.65
2022-10-19T02:42:01.594Z,4.03
2022-10-19T02:44:32.373Z,4.30
2022-10-19T02:47:03.422Z,3.97
2022-10-19T02:49:31.610Z,4.07
2022-10-19T02:52:00.986Z,4.18
2022-10-19T02:54:29.702Z,4.70
2022-10-19T02:56:57.483Z,4.38
2022-10-19T02:59:25.047Z,4.22
2022-10-19T03:01:52.666Z,4.50
2022-10-19T03:04:19.998Z,4.53
2022-10-19T03:06:47.457Z,4.10
2022-10-19T03:09:14.831Z,3.85
2022-10-19T03:11:43.491Z,3.80
2022-10-19T03:14:11.001Z,4.30
2022-10-19T03:16:38.337Z,4.22
2022-10-19T03:19:05.671Z,3.80
2022-10-19T03:21:34.605Z,4.53
2022-10-19T03:24:02.003Z,4.55
2022-10-19T03:26:29.339Z,4.10
2022-10-19T03:28:58.233Z,3.72
2022-10-19T03:31:27.047Z,4.03
2022-10-19T03:33:54.469Z,3.83
2022-10-19T03:36:23.305Z,4.03
2022-10-19T03:38:51.347Z,3.60
2022-10-19T03:41:19.155Z,3.35
2022-10-19T03:43:46.598Z,4.07
2022-10-19T03:46:15.350Z,3.45
2022-10-19T03:48:43.143Z,3.10
2022-10-19T03:51:13.036Z,3.58
2022-10-19T03:53:40.815Z,3.75
2022-10-19T03:56:10.182Z,3.25
2022-10-19T03:58:38.918Z,3.15
2022-10-19T04:01:08.666Z,2.80
2022-10-19T04:03:37.410Z,2.15
2022-10-19T04:06:05.488Z,2.90
2022-10-19T04:08:32.941Z,2.72
2022-10-19T04:11:01.848Z,2.92
2022-10-19T04:13:29.776Z,2.85
2022-10-19T04:15:57.225Z,2.38
2022-10-19T04:18:24.617Z,2.70
2022-10-19T04:20:58.325Z,2.42
2022-10-19T04:23:27.449Z,2.90
2022-10-19T04:26:00.566Z,2.67
2022-10-19T04:28:28.193Z,2.80
2022-10-19T04:30:55.644Z,2.80
2022-10-19T04:33:23.041Z,2.30
2022-10-19T04:35:50.403Z,2.55
2022-10-19T04:38:19.036Z,2.33
2022-10-19T04:40:46.371Z,2.83
2022-10-19T04:43:13.710Z,2.47
2022-10-19T04:45:41.039Z,1.80
2022-10-19T04:48:08.363Z,2.22
2022-10-19T04:50:35.732Z,2.40
2022-10-19T04:53:03.061Z,2.28
2022-10-19T04:55:31.701Z,2.30
2022-10-19T04:57:59.028Z,2.28
2022-10-19T05:00:26.334Z,2.40
2022-10-19T05:02:53.671Z,2.33
2022-10-19T05:05:21.076Z,2.80
2022-10-19T05:07:49.624Z,2.10
2022-10-19T05:10:17.107Z,2.33
2022-10-19T05:12:45.730Z,2.30
2022-10-19T05:15:13.038Z,2.33
2022-10-19T05:17:40.461Z,2.25
2022-10-19T05:20:10.085Z,2.30
2022-10-19T05:22:37.509Z,2.30
2022-10-19T05:25:05.436Z,2.83
2022-10-19T05:27:33.214Z,2.20
2022-10-19T05:30:02.161Z,1.67
2022-10-19T05:32:29.551Z,1.70
2022-10-19T05:34:56.866Z,1.85
2022-10-19T05:37:25.619Z,2.20
2022-10-19T05:39:52.988Z,1.80
2022-10-19T05:42:20.324Z,1.50
2022-10-19T05:44:47.708Z,1.42
2022-10-19T05:47:16.369Z,1.92
2022-10-19T05:49:43.749Z,1.85
2022-10-19T05:52:11.074Z,1.88
2022-10-19T05:54:38.491Z,1.90
2022-10-19T05:57:05.834Z,1.70
2022-10-19T05:59:33.352Z,1.75
2022-10-19T06:02:00.821Z,1.80
2022-10-19T06:04:29.469Z,1.67
2022-10-19T06:06:56.815Z,1.98
2022-10-19T06:09:24.136Z,1.90
2022-10-19T06:11:51.455Z,2.40
2022-10-19T06:14:18.854Z,3.50
2022-10-19T06:16:46.687Z,3.13
2022-10-19T06:19:14.206Z,4.40
2022-10-19T06:21:45.902Z,3.75
2022-10-19T06:24:13.754Z,3.42
2022-10-19T06:26:41.236Z,4.75
2022-10-19T06:29:08.638Z,3.72
2022-10-19T06:31:37.202Z,2.15
2022-10-19T06:34:05.152Z,2.67
2022-10-19T06:36:33.456Z,2.05
2022-10-19T06:39:02.773Z,1.70
2022-10-19T06:41:30.603Z,1.85
2022-10-19T06:44:02.914Z,2.10
2022-10-19T06:46:30.358Z,2.10
2022-10-19T06:48:59.483Z,2.97
2022-10-19T06:51:27.719Z,1.70
2022-10-19T06:53:57.047Z,1.95
2022-10-19T06:56:26.908Z,2.10
2022-10-19T06:58:54.669Z,1.60
2022-10-19T07:01:22.757Z,1.90
2022-10-19T07:03:51.645Z,2.08
2022-10-19T07:06:19.420Z,2.55
2022-10-19T07:08:47.002Z,2.25
2022-10-19T07:11:17.395Z,1.60
2022-10-19T07:13:46.087Z,1.73
2022-10-19T07:16:17.985Z,3.05
2022-10-19T07:18:49.582Z,1.88
2022-10-19T07:21:17.654Z,1.80
2022-10-19T07:23:47.174Z,1.85
2022-10-19T07:26:15.743Z,1.90
2022-10-19T07:28:44.639Z,1.75
2022-10-19T07:31:15.415Z,2.05
2022-10-19T07:33:42.827Z,1.60
2022-10-19T07:36:11.435Z,1.95
2022-10-19T07:38:38.875Z,2.13
2022-10-19T07:41:08.383Z,1.88
2022-10-19T07:43:36.250Z,2.05
2022-10-19T07:46:05.715Z,1.55
2022-10-19T07:48:34.976Z,1.50
2022-10-19T07:51:03.741Z,1.67
2022-10-19T07:53:31.078Z,1.83
2022-10-19T07:56:04.189Z,1.83
2022-10-19T07:58:31.651Z,1.60
2022-10-19T08:01:01.277Z,1.70
2022-10-19T08:04:31.352Z,1.52
2022-10-19T08:06:18.973Z,1.73
2022-10-19T08:08:47.437Z,1.58
2022-10-19T08:11:16.232Z,2.35
2022-10-19T08:13:43.581Z,2.10
2022-10-19T08:16:22.606Z,1.70
2022-10-19T08:18:50.681Z,1.77
2022-10-19T08:21:19.409Z,2.00
2022-10-19T08:23:46.788Z,2.05
2022-10-19T08:26:14.134Z,2.88
2022-10-19T08:28:41.554Z,3.92
2022-10-19T08:31:13.610Z,3.38
2022-10-19T08:33:41.476Z,2.72
2022-10-19T08:36:09.779Z,2.38
2022-10-19T08:38:39.275Z,3.20
2022-10-19T08:41:19.616Z,1.95
2022-10-19T08:43:57.223Z,3.70
2022-10-19T08:46:26.335Z,3.05
2022-10-19T08:48:53.722Z,2.10
2022-10-19T08:51:21.079Z,3.67
2022-10-19T08:53:55.588Z,1.52
2022-10-19T08:56:49.527Z,1.75
2022-10-19T08:59:24.837Z,1.83
2022-10-19T09:01:54.636Z,2.90
2022-10-19T09:04:24.878Z,2.95
2022-10-19T09:07:00.975Z,1.88
2022-10-19T09:09:31.353Z,2.90
2022-10-19T09:12:04.153Z,1.90
2022-10-19T09:14:33.897Z,2.10
2022-10-19T09:17:04.112Z,1.90
2022-10-19T09:19:32.008Z,1.80
2022-10-19T09:22:02.910Z,2.10
2022-10-19T09:24:37.520Z,2.28
2022-10-19T09:27:06.830Z,2.30
2022-10-19T09:29:38.859Z,2.30
2022-10-19T09:32:10.896Z,1.65
2022-10-19T09:34:42.757Z,2.00
2022-10-19T09:37:17.964Z,2.17
2022-10-19T09:39:53.977Z,2.50
2022-10-19T09:42:24.888Z,2.22
2022-10-19T09:44:53.263Z,1.80
2022-10-19T09:47:35.399Z,1.98
2022-10-19T09:50:09.034Z,2.17
2022-10-19T09:52:38.491Z,1.80
2022-10-19T09:55:11.150Z,1.80
2022-10-19T09:57:42.948Z,1.67
2022-10-19T10:00:18.924Z,2.25
2022-10-19T10:02:50.025Z,1.42
2022-10-19T10:05:17.852Z,1.70
2022-10-19T10:07:45.731Z,1.85
2022-10-19T10:10:21.504Z,1.50
2022-10-19T10:12:48.958Z,1.85
2022-10-19T10:15:19.453Z,1.73
2022-10-19T10:17:47.503Z,1.35
2022-10-19T10:20:27.629Z,1.40
2022-10-19T10:22:57.895Z,1.30
2022-10-19T10:25:29.747Z,1.83
2022-10-19T10:27:59.750Z,1.25
2022-10-19T10:30:28.940Z,1.42
2022-10-19T10:33:04.682Z,1.48
2022-10-19T10:35:49.010Z,1.27
2022-10-19T10:38:19.207Z,3.28
2022-10-19T10:40:53.352Z,1.80
2022-10-19T10:43:22.732Z,1.38
2022-10-19T10:45:52.906Z,1.40
2022-10-19T10:48:28.316Z,1.95
2022-10-19T10:50:56.244Z,1.30
2022-10-19T10:53:33.642Z,1.45
2022-10-19T10:56:02.316Z,1.20
2022-10-19T10:58:36.623Z,1.10
2022-10-19T11:01:07.896Z,1.10
2022-10-19T11:03:37.016Z,1.40
2022-10-19T11:06:04.592Z,1.08
2022-10-19T11:08:35.096Z,0.80
2022-10-19T11:11:09.971Z,0.90
2022-10-19T11:13:42.444Z,1.00
2022-10-19T11:16:13.645Z,0.82
2022-10-19T11:18:44.216Z,1.02
2022-10-19T11:21:14.289Z,1.20
2022-10-19T11:23:49.109Z,0.80
2022-10-19T11:26:31.281Z,0.90
2022-10-19T11:29:09.683Z,0.90
2022-10-19T11:31:39.929Z,1.02
2022-10-19T11:34:11.407Z,0.75
2022-10-19T11:36:46.535Z,1.27
2022-10-19T11:39:25.571Z,0.93
2022-10-19T11:42:00.972Z,0.80
2022-10-19T11:44:36.302Z,1.00
2022-10-19T11:47:19.904Z,0.73
2022-10-19T11:52:20.729Z,1.13
2022-10-19T11:54:57.947Z,1.02
2022-10-19T11:57:29.058Z,1.10
2022-10-19T12:00:14.250Z,1.40
2022-10-19T12:02:59.396Z,2.20
2022-10-19T12:05:34.485Z,1.90
2022-10-19T12:08:14.915Z,1.30
2022-10-19T12:10:48.895Z,1.40
2022-10-19T12:13:20.775Z,0.70
2022-10-19T12:15:49.554Z,1.45
2022-10-19T12:18:21.893Z,1.30
2022-10-19T12:20:50.889Z,2.00
2022-10-19T12:23:24.132Z,1.40
2022-10-19T12:25:51.853Z,1.25
2022-10-19T12:28:23.669Z,1.20
2022-10-19T12:30:51.422Z,1.00
2022-10-19T12:33:21.913Z,0.90
2022-10-19T12:36:07.128Z,1.23
2022-10-19T12:38:43.953Z,1.30
2022-10-19T12:41:20.922Z,1.33
2022-10-19T12:43:58.342Z,1.17
2022-10-19T12:46:32.709Z,1.10
2022-10-19T12:49:35.116Z,1.08
2022-10-19T12:52:03.079Z,1.30
2022-10-19T12:54:32.540Z,1.35
2022-10-19T12:57:01.900Z,1.00
2022-10-19T12:59:33.166Z,1.85
2022-10-19T13:02:01.151Z,1.17
2022-10-19T13:04:30.222Z,1.33
2022-10-19T13:07:02.653Z,1.50
2022-10-19T13:09:33.116Z,0.98
2022-10-19T13:12:29.385Z,1.10
2022-10-19T13:14:59.181Z,1.02
2022-10-19T13:17:43.669Z,1.40
2022-10-19T13:20:49.332Z,1.20
2022-10-19T13:23:39.617Z,1.45
2022-10-19T13:26:33.380Z,1.20
2022-10-19T13:29:01.260Z,1.20
2022-10-19T13:31:31.556Z,0.77
2022-10-19T13:33:59.251Z,1.10
2022-10-19T13:36:27.112Z,1.02
2022-10-19T13:39:08.389Z,1.30
2022-10-19T13:41:50.670Z,1.10
2022-10-19T13:44:24.980Z,2.15
2022-10-19T13:47:01.280Z,1.70
2022-10-19T13:49:51.300Z,1.70
2022-10-19T13:52:35.276Z,1.10
2022-10-19T13:57:54.722Z,1.02
2022-10-19T14:00:26.259Z,1.10
2022-10-19T14:03:20.447Z,1.60
2022-10-19T14:06:10.721Z,1.60
2022-10-19T14:08:49.242Z,1.50
2022-10-19T14:11:18.965Z,1.20
2022-10-19T14:13:46.620Z,1.10
2022-10-19T14:16:19.740Z,1.40
2022-10-19T14:18:55.505Z,1.52
2022-10-19T14:21:33.400Z,1.25
2022-10-19T14:24:01.137Z,1.25
2022-10-19T14:26:30.953Z,1.52
2022-10-19T14:28:59.957Z,1.08
2022-10-19T14:31:32.754Z,1.10
2022-10-19T14:34:03.176Z,1.30
2022-10-19T14:36:35.029Z,1.00
2022-10-19T14:39:02.646Z,0.90
2022-10-19T14:41:32.402Z,1.30
2022-10-19T14:44:02.731Z,0.95
2022-10-19T14:46:30.983Z,1.35
2022-10-19T14:49:02.196Z,1.05
2022-10-19T14:51:34.277Z,1.42
2022-10-19T14:54:05.183Z,1.30
2022-10-19T14:56:35.475Z,1.30
2022-10-19T14:59:05.196Z,0.90
2022-10-19T15:01:32.702Z,1.10
2022-10-19T15:04:01.391Z,1.15
2022-10-19T15:06:31.050Z,1.10
2022-10-19T15:09:00.222Z,1.08
2022-10-19T15:11:30.257Z,1.00
2022-10-19T15:14:01.502Z,1.58
2022-10-19T15:16:42.911Z,1.73
2022-10-19T15:19:19.861Z,1.70
2022-10-19T15:21:47.286Z,1.40
2022-10-19T15:24:25.735Z,1.85
2022-10-19T15:27:06.520Z,2.30
2022-10-19T15:29:36.317Z,2.10
2022-10-19T15:32:14.624Z,1.75
2022-10-19T15:34:44.766Z,1.77
2022-10-19T15:37:18.668Z,1.50
2022-10-19T15:42:24.064Z,1.80
2022-10-19T15:44:51.431Z,2.00
2022-10-19T15:47:21.796Z,2.08
2022-10-19T15:49:55.563Z,2.17
2022-10-19T15:52:24.187Z,1.77
2022-10-19T15:54:52.555Z,2.20
2022-10-19T15:57:26.433Z,1.95
2022-10-19T16:02:21.434Z,1.98
2022-10-19T16:04:48.844Z,1.88
2022-10-19T16:07:21.777Z,1.80
2022-10-19T16:09:49.099Z,1.90
2022-10-19T16:12:16.432Z,1.90
2022-10-19T16:14:43.756Z,1.95
2022-10-19T16:17:13.022Z,2.20
2022-10-19T16:19:40.430Z,2.35
2022-10-19T16:22:07.837Z,2.10
2022-10-19T16:24:36.499Z,2.13
2022-10-19T16:27:03.995Z,2.45
2022-10-19T16:29:31.318Z,2.47
2022-10-19T16:31:58.735Z,2.50
2022-10-19T16:34:26.207Z,5.82
2022-10-19T16:36:53.710Z,2.55
2022-10-19T16:39:21.165Z,2.58
2022-10-19T16:41:49.917Z,2.53
2022-10-19T16:44:17.340Z,3.00
2022-10-19T16:46:44.688Z,3.20
2022-10-19T16:49:12.075Z,3.60
2022-10-19T16:51:40.483Z,3.75
2022-10-19T16:54:09.276Z,3.75
2022-10-19T16:56:37.219Z,3.70
2022-10-19T16:59:06.860Z,3.83
2022-10-19T17:01:35.555Z,3.47
2022-10-19T17:04:02.925Z,3.53
2022-10-19T17:06:30.331Z,3.42
2022-10-19T17:11:46.212Z,3.50
2022-10-19T17:14:14.886Z,3.00
2022-10-19T17:16:42.246Z,3.38
2022-10-19T17:19:11.151Z,4.63
2022-10-19T17:21:39.168Z,7.75
2022-10-19T17:24:08.059Z,6.53
2022-10-19T17:26:36.997Z,4.53
2022-10-19T17:29:05.178Z,4.15
2022-10-19T17:31:34.810Z,4.05
2022-10-19T17:34:02.622Z,4.35
2022-10-19T17:36:31.600Z,4.22
2022-10-19T17:39:00.516Z,4.50
2022-10-19T17:41:28.311Z,4.32
2022-10-19T17:43:55.765Z,4.10
2022-10-19T17:46:25.581Z,4.38
2022-10-19T17:48:54.722Z,4.22
2022-10-19T17:51:24.391Z,4.88
2022-10-19T17:53:52.113Z,4.50
2022-10-19T17:56:20.879Z,4.53
2022-10-19T17:58:48.611Z,4.90
2022-10-19T18:01:16.774Z,4.70
2022-10-19T18:03:44.149Z,5.20
2022-10-19T18:06:14.880Z,5.40
2022-10-19T18:08:44.166Z,5.75
2022-10-19T18:11:14.156Z,5.53
2022-10-19T18:13:42.118Z,6.22
2022-10-19T18:16:10.972Z,6.57
2022-10-19T18:18:39.586Z,7.07
2022-10-19T18:21:08.000Z,7.13
2022-10-19T18:23:36.713Z,7.22
2022-10-19T18:26:05.777Z,8.07
2022-10-19T18:28:34.060Z,8.15
2022-10-19T18:31:05.988Z,9.02
2022-10-19T18:33:33.430Z,11.80
2022-10-19T18:36:00.779Z,17.02
2022-10-19T18:38:28.225Z,19.25
2022-10-19T18:40:56.975Z,29.58
2022-10-19T18:43:24.338Z,29.73
2022-10-19T18:45:52.651Z,24.60
2022-10-19T18:48:20.078Z,26.48
2022-10-19T18:50:47.629Z,32.55
2022-10-19T18:53:15.142Z,38.35
2022-10-19T18:55:42.886Z,34.95
2022-10-19T18:58:12.164Z,34.88
2022-10-19T19:00:45.537Z,28.10
2022-10-19T19:03:13.238Z,20.20
2022-10-19T19:05:40.608Z,18.65
2022-10-19T19:08:07.982Z,17.23
2022-10-19T19:10:35.394Z,16.85
2022-10-19T19:13:02.735Z,17.90
2022-10-19T19:15:31.388Z,17.08
2022-10-19T19:17:58.797Z,15.88
2022-10-19T19:20:26.172Z,13.35
2022-10-19T19:22:53.539Z,13.15
2022-10-19T19:25:20.863Z,12.32
2022-10-19T19:27:48.199Z,13.27
2022-10-19T19:30:15.594Z,13.02
2022-10-19T19:32:44.235Z,18.70
2022-10-19T19:35:11.607Z,16.30
2022-10-19T19:37:38.926Z,12.98
2022-10-19T19:40:07.258Z,9.63
2022-10-19T19:42:35.214Z,7.75
2022-10-19T19:45:02.549Z,7.32
2022-10-19T19:47:29.966Z,7.28
2022-10-19T19:49:58.595Z,6.45
2022-10-19T19:52:26.033Z,6.30
2022-10-19T19:54:53.382Z,7.35
2022-10-19T19:57:20.951Z,8.13
2022-10-19T19:59:48.276Z,9.57
2022-10-19T20:02:16.350Z,9.93
2022-10-19T20:04:43.682Z,13.15
2022-10-19T20:07:12.345Z,15.80
2022-10-19T20:09:39.684Z,13.50
2022-10-19T20:12:07.097Z,10.32
2022-10-19T20:14:34.482Z,10.90
2022-10-19T20:17:01.829Z,9.85
2022-10-19T20:19:29.163Z,10.00
2022-10-19T20:21:58.165Z,9.10
2022-10-19T20:24:26.944Z,9.07
2022-10-19T20:26:54.311Z,8.55
2022-10-19T20:29:22.117Z,8.75
2022-10-19T20:31:49.450Z,8.70
2022-10-19T20:34:19.512Z,8.90
2022-10-19T20:36:50.737Z,9.15
2022-10-19T20:39:18.720Z,9.13
2022-10-19T20:41:47.362Z,10.30
2022-10-19T20:44:14.726Z,9.60
2022-10-19T20:46:42.044Z,10.45
2022-10-19T20:49:11.429Z,11.85
2022-10-19T20:51:39.663Z,11.15
2022-10-19T20:54:08.672Z,6.72
2022-10-19T20:56:37.932Z,5.97
2022-10-19T20:59:07.992Z,5.70
2022-10-19T21:01:36.626Z,5.85
2022-10-19T21:04:05.711Z,5.15
2022-10-19T21:06:35.200Z,4.95
2022-10-19T21:09:02.639Z,3.92
2022-10-19T21:11:31.826Z,4.03
2022-10-19T21:14:00.440Z,4.03
2022-10-19T21:16:33.448Z,3.63
2022-10-19T21:19:01.536Z,2.53
2022-10-19T21:21:30.280Z,3.60
2022-10-19T21:23:59.259Z,2.75
2022-10-19T21:26:27.254Z,3.20
2022-10-19T21:28:54.725Z,2.95
2022-10-19T21:31:23.389Z,3.33
2022-10-19T21:33:52.517Z,3.67
2022-10-19T21:36:20.885Z,3.10
2022-10-19T21:38:48.798Z,3.13
2022-10-19T21:41:20.856Z,3.47
2022-10-19T21:43:51.311Z,3.17
2022-10-19T21:46:20.579Z,3.28
2022-10-19T21:48:48.531Z,3.28
2022-10-19T21:51:23.519Z,3.10
2022-10-19T21:53:51.127Z,3.17
2022-10-19T21:56:18.599Z,3.38
2022-10-19T21:58:46.535Z,3.25
2022-10-19T22:01:13.994Z,4.07
2022-10-19T22:03:41.536Z,3.45
2022-10-19T22:06:09.180Z,3.08
2022-10-19T22:08:38.437Z,3.22
2022-10-19T22:11:07.376Z,3.28
2022-10-19T22:13:34.969Z,3.40
2022-10-19T22:16:05.857Z,3.30
2022-10-19T22:18:33.338Z,3.17
2022-10-19T22:21:03.984Z,3.40
2022-10-19T22:23:31.359Z,3.40
2022-10-19T22:26:00.184Z,3.50
2022-10-19T22:28:27.803Z,3.30
2022-10-19T22:30:55.759Z,3.67
2022-10-19T22:33:23.342Z,3.42
2022-10-19T22:35:54.770Z,4.13
2022-10-19T22:38:22.117Z,3.40
2022-10-19T22:40:49.470Z,3.63
2022-10-19T22:43:18.274Z,3.72
2022-10-19T22:45:48.023Z,3.28
2022-10-19T22:48:15.507Z,3.67
2022-10-19T22:50:42.956Z,3.63
2022-10-19T22:53:10.643Z,3.72
2022-10-19T22:55:38.140Z,3.45
2022-10-19T22:58:05.800Z,3.75
2022-10-19T23:00:35.794Z,4.15
2022-10-19T23:03:03.234Z,3.72
2022-10-19T23:05:30.662Z,3.92
2022-10-19T23:07:58.132Z,3.53
2022-10-19T23:10:25.620Z,4.18
2022-10-19T23:12:53.662Z,4.03
2022-10-19T23:15:21.636Z,3.72
2022-10-19T23:17:50.483Z,4.43
2022-10-19T23:20:18.168Z,3.38
2022-10-19T23:22:45.518Z,3.30
2022-10-19T23:25:12.930Z,3.63
2022-10-19T23:27:40.415Z,3.90
2022-10-19T23:30:08.901Z,3.67
2022-10-19T23:32:36.355Z,3.58
2022-10-19T23:35:05.795Z,4.00
2022-10-19T23:37:34.620Z,3.30
2022-10-19T23:40:02.168Z,3.50
2022-10-19T23:42:29.523Z,3.45
2022-10-19T23:44:56.857Z,3.80
2022-10-19T23:47:24.186Z,3.70
2022-10-19T23:49:51.504Z,3.47
2022-10-19T23:52:20.196Z,3.58
2022-10-19T23:54:47.539Z,4.05
2022-10-19T23:57:14.857Z,3.35
2022-10-19T23:59:42.176Z,3.60
